createdAt,value
2023-03-01T00:00:30.056Z,-0.76
2023-03-01T00:03:31.343Z,-0.67
2023-03-01T00:06:09.906Z,-0.62
2023-03-01T00:08:48.250Z,-0.63
2023-03-01T00:11:30.635Z,-0.67
2023-03-01T00:14:09.538Z,-0.68
2023-03-01T00:16:48.392Z,-0.70
2023-03-01T00:19:26.547Z,-0.72
2023-03-01T00:22:04.087Z,-0.73
2023-03-01T00:24:41.857Z,-0.76
2023-03-01T00:27:19.597Z,-0.77
2023-03-01T00:29:57.013Z,-0.79
2023-03-01T00:32:35.094Z,-0.81
2023-03-01T00:35:07.291Z,-0.83
2023-03-01T00:37:46.029Z,-0.85
2023-03-01T00:40:17.751Z,-0.81
2023-03-01T00:42:52.507Z,-0.77
2023-03-01T00:45:32.365Z,-0.73
2023-03-01T00:48:10.741Z,-0.65
2023-03-01T00:50:49.163Z,-0.64
2023-03-01T00:53:22.430Z,-0.67
2023-03-01T00:56:01.614Z,-0.67
2023-03-01T00:58:39.189Z,-0.67
2023-03-01T01:01:22.479Z,-0.70
2023-03-01T01:04:07.466Z,-0.71
2023-03-01T01:06:46.338Z,-0.76
2023-03-01T01:09:24.159Z,-0.79
2023-03-01T01:12:01.972Z,-0.81
2023-03-01T01:14:33.358Z,-0.78
2023-03-01T01:17:04.817Z,-0.74
2023-03-01T01:19:35.851Z,-0.72
2023-03-01T01:22:13.529Z,-0.71
2023-03-01T01:24:50.406Z,-0.71
2023-03-01T01:27:20.740Z,-0.69
2023-03-01T01:30:00.017Z,-0.66
2023-03-01T01:32:37.670Z,-0.69
2023-03-01T01:35:15.181Z,-0.72
2023-03-01T01:37:52.630Z,-0.73
2023-03-01T01:40:29.849Z,-0.75
2023-03-01T01:43:00.385Z,-0.80
2023-03-01T01:45:37.540Z,-0.85
2023-03-01T01:48:21.292Z,-0.91
2023-03-01T01:51:02.545Z,-0.95
2023-03-01T01:53:34.886Z,-1.00
2023-03-01T01:56:14.454Z,-1.05
2023-03-01T01:58:52.994Z,-1.04
2023-03-01T02:01:23.311Z,-1.01
2023-03-01T02:03:54.632Z,-0.97
2023-03-01T02:06:34.082Z,-0.91
2023-03-01T02:09:19.173Z,-0.91
2023-03-01T02:11:52.592Z,-0.91
2023-03-01T02:14:30.905Z,-0.87
2023-03-01T02:17:01.151Z,-0.85
2023-03-01T02:20:10.203Z,-0.86
2023-03-01T02:22:49.465Z,-0.92
2023-03-01T02:25:41.066Z,-0.99
2023-03-01T02:28:17.271Z,-1.06
2023-03-01T02:31:11.416Z,-1.08
2023-03-01T02:33:44.715Z,-1.13
2023-03-01T02:36:42.416Z,-1.17
2023-03-01T02:39:34.109Z,-1.21
2023-03-01T02:42:16.364Z,-1.23
2023-03-01T02:44:55.255Z,-1.19
2023-03-01T02:47:33.166Z,-1.12
2023-03-01T02:50:33.838Z,-1.08
2023-03-01T02:53:41.157Z,-1.06
2023-03-01T02:56:15.277Z,-1.04
2023-03-01T02:58:53.010Z,-1.04
2023-03-01T03:01:23.955Z,-1.06
2023-03-01T03:04:02.844Z,-1.09
2023-03-01T03:06:41.408Z,-1.11
2023-03-01T03:09:21.954Z,-1.12
2023-03-01T03:11:59.895Z,-1.14
2023-03-01T03:14:38.452Z,-1.17
2023-03-01T03:17:15.932Z,-1.19
2023-03-01T03:19:53.227Z,-1.13
2023-03-01T03:22:30.639Z,-1.08
2023-03-01T03:25:01.760Z,-1.03
2023-03-01T03:27:35.560Z,-1.00
2023-03-01T03:30:14.977Z,-0.99
2023-03-01T03:32:55.348Z,-0.99
2023-03-01T03:35:35.480Z,-0.99
2023-03-01T03:38:21.332Z,-1.00
2023-03-01T03:41:10.570Z,-1.00
2023-03-01T03:43:44.287Z,-1.00
2023-03-01T03:46:18.714Z,-1.03
2023-03-01T03:48:56.028Z,-1.04
2023-03-01T03:51:34.128Z,-1.05
2023-03-01T03:54:04.570Z,-1.07
2023-03-01T03:56:42.265Z,-1.12
2023-03-01T03:59:19.796Z,-1.16
2023-03-01T04:01:57.601Z,-1.18
2023-03-01T04:04:36.064Z,-1.19
2023-03-01T04:07:07.878Z,-1.21
2023-03-01T04:09:38.553Z,-1.26
2023-03-01T04:12:23.223Z,-1.17
2023-03-01T04:14:57.240Z,-1.14
2023-03-01T04:17:35.372Z,-1.14
2023-03-01T04:20:18.774Z,-1.10
2023-03-01T04:23:17.387Z,-1.08
2023-03-01T04:25:58.159Z,-1.07
2023-03-01T04:28:44.431Z,-1.10
2023-03-01T04:31:22.884Z,-1.11
2023-03-01T04:34:01.455Z,-1.13
2023-03-01T04:36:39.163Z,-1.18
2023-03-01T04:39:16.579Z,-1.21
2023-03-01T04:41:46.699Z,-1.24
2023-03-01T04:44:18.148Z,-1.25
2023-03-01T04:46:58.205Z,-1.26
2023-03-01T04:49:35.711Z,-1.28
2023-03-01T04:52:13.302Z,-1.23
2023-03-01T04:54:50.575Z,-1.15
2023-03-01T04:57:28.494Z,-1.12
2023-03-01T05:00:22.776Z,-1.10
2023-03-01T05:03:02.323Z,-1.06
2023-03-01T05:05:39.999Z,-1.10
2023-03-01T05:08:20.101Z,-1.12
2023-03-01T05:10:54.128Z,-1.14
2023-03-01T05:13:32.716Z,-1.16
2023-03-01T05:16:14.270Z,-1.18
2023-03-01T05:18:52.360Z,-1.19
2023-03-01T05:21:30.171Z,-1.19
2023-03-01T05:24:06.868Z,-1.24
2023-03-01T05:26:45.008Z,-1.24
2023-03-01T05:29:27.206Z,-1.25
2023-03-01T05:32:02.396Z,-1.26
2023-03-01T05:34:41.252Z,-1.21
2023-03-01T05:37:19.750Z,-1.16
2023-03-01T05:39:57.477Z,-1.10
2023-03-01T05:42:35.474Z,-1.03
2023-03-01T05:45:16.832Z,-0.95
2023-03-01T05:47:57.584Z,-0.96
2023-03-01T05:50:33.701Z,-0.97
2023-03-01T05:53:09.386Z,-0.97
2023-03-01T05:55:41.519Z,-0.94
2023-03-01T05:58:20.871Z,-0.91
2023-03-01T06:00:57.828Z,-0.89
2023-03-01T06:03:28.034Z,-0.85
2023-03-01T06:06:05.975Z,-0.78
2023-03-01T06:08:37.565Z,-0.71
2023-03-01T06:11:09.219Z,-0.63
2023-03-01T06:13:43.784Z,-0.49
2023-03-01T06:16:20.707Z,-0.36
2023-03-01T06:18:58.264Z,-0.17
2023-03-01T06:21:36.121Z,0.03
2023-03-01T06:24:13.376Z,0.15
2023-03-01T06:26:51.588Z,0.23
2023-03-01T06:29:28.799Z,0.36
2023-03-01T06:32:09.478Z,0.52
2023-03-01T06:34:47.165Z,0.68
2023-03-01T06:37:17.761Z,0.69
2023-03-01T06:39:56.793Z,0.70
2023-03-01T06:42:34.359Z,0.78
2023-03-01T06:45:07.424Z,0.87
2023-03-01T06:47:41.778Z,0.85
2023-03-01T06:50:18.195Z,0.80
2023-03-01T06:53:00.638Z,0.89
2023-03-01T06:55:32.291Z,0.95
2023-03-01T06:58:12.464Z,1.02
2023-03-01T07:00:50.134Z,1.09
2023-03-01T07:03:20.766Z,1.10
2023-03-01T07:05:53.988Z,1.19
2023-03-01T07:08:24.142Z,1.27
2023-03-01T07:11:04.016Z,1.30
2023-03-01T07:13:40.721Z,1.44
2023-03-01T07:16:18.828Z,1.55
2023-03-01T07:18:56.271Z,1.57
2023-03-01T07:21:33.739Z,1.41
2023-03-01T07:24:12.833Z,1.41
2023-03-01T07:26:43.355Z,1.45
2023-03-01T07:29:13.526Z,1.55
2023-03-01T07:31:44.504Z,1.65
2023-03-01T07:34:18.157Z,1.73
2023-03-01T07:36:55.444Z,1.80
2023-03-01T07:39:26.830Z,1.85
2023-03-01T07:42:04.479Z,1.98
2023-03-01T07:44:41.891Z,2.08
2023-03-01T07:47:19.679Z,2.10
2023-03-01T07:49:57.483Z,2.15
2023-03-01T07:52:28.652Z,2.23
2023-03-01T07:55:03.829Z,2.39
2023-03-01T07:57:34.459Z,2.49
2023-03-01T08:00:14.031Z,2.55
2023-03-01T08:02:52.307Z,2.57
2023-03-01T08:05:23.674Z,2.72
2023-03-01T08:08:00.957Z,3.11
2023-03-01T08:10:31.282Z,3.83
2023-03-01T08:13:04.471Z,4.76
2023-03-01T08:15:42.174Z,5.62
2023-03-01T08:18:18.991Z,6.13
2023-03-01T08:20:56.214Z,6.42
2023-03-01T08:23:27.162Z,6.86
2023-03-01T08:26:20.393Z,6.98
2023-03-01T08:28:57.197Z,7.09
2023-03-01T08:31:39.748Z,7.15
2023-03-01T08:34:19.635Z,7.24
2023-03-01T08:36:57.277Z,7.52
2023-03-01T08:39:35.030Z,7.63
2023-03-01T08:42:13.363Z,7.48
2023-03-01T08:44:50.746Z,7.36
2023-03-01T08:47:21.256Z,7.68
2023-03-01T08:49:52.814Z,7.61
2023-03-01T08:52:26.258Z,7.85
2023-03-01T08:55:03.803Z,8.11
2023-03-01T08:57:41.917Z,8.34
2023-03-01T09:00:20.321Z,8.40
2023-03-01T09:02:58.497Z,8.58
2023-03-01T09:05:38.713Z,8.31
2023-03-01T09:08:17.210Z,8.18
2023-03-01T09:10:55.277Z,8.41
2023-03-01T09:13:35.623Z,8.66
2023-03-01T09:16:13.398Z,8.79
2023-03-01T09:18:56.899Z,8.79
2023-03-01T09:21:40.539Z,8.75
2023-03-01T09:24:22.780Z,8.61
2023-03-01T09:27:04.815Z,8.62
2023-03-01T09:29:43.554Z,8.45
2023-03-01T09:32:20.953Z,8.53
2023-03-01T09:35:08.211Z,8.58
2023-03-01T09:37:47.780Z,8.61
2023-03-01T09:40:30.171Z,8.74
2023-03-01T09:43:29.165Z,8.58
2023-03-01T09:46:19.062Z,8.59
2023-03-01T09:49:07.278Z,8.62
2023-03-01T09:51:39.254Z,8.78
2023-03-01T09:54:18.549Z,8.91
2023-03-01T09:57:21.685Z,9.10
2023-03-01T10:00:12.762Z,8.97
2023-03-01T10:03:11.519Z,9.26
2023-03-01T10:06:14.937Z,9.50
2023-03-01T10:09:14.779Z,9.43
2023-03-01T10:11:59.507Z,9.34
2023-03-01T10:14:58.905Z,9.62
2023-03-01T10:17:52.610Z,9.79
2023-03-01T10:21:11.178Z,10.10
2023-03-01T10:23:52.760Z,9.98
2023-03-01T10:26:48.808Z,9.84
2023-03-01T10:29:49.833Z,9.73
2023-03-01T10:32:25.164Z,9.63
2023-03-01T10:35:04.507Z,9.72
2023-03-01T10:38:11.723Z,9.60
2023-03-01T10:41:10.387Z,9.61
2023-03-01T10:43:57.073Z,9.69
2023-03-01T10:46:38.255Z,9.95
2023-03-01T10:49:32.043Z,9.94
2023-03-01T10:52:30.005Z,9.81
2023-03-01T10:55:35.287Z,9.83
2023-03-01T10:58:29.342Z,9.79
2023-03-01T11:01:34.436Z,9.58
2023-03-01T11:04:16.899Z,9.34
2023-03-01T11:07:04.200Z,9.37
2023-03-01T11:09:42.803Z,9.43
2023-03-01T11:12:25.574Z,9.20
2023-03-01T11:15:06.007Z,9.07
2023-03-01T11:17:57.060Z,9.18
2023-03-01T11:20:38.595Z,9.10
2023-03-01T11:23:17.090Z,9.09
2023-03-01T11:26:06.407Z,9.09
2023-03-01T11:28:47.002Z,8.93
2023-03-01T11:31:26.348Z,8.55
2023-03-01T11:34:19.484Z,8.27
2023-03-01T11:37:05.683Z,8.27
2023-03-01T11:40:27.534Z,8.22
2023-03-01T11:43:19.431Z,8.11
2023-03-01T11:46:29.894Z,8.15
2023-03-01T11:49:39.452Z,8.11
2023-03-01T11:52:43.147Z,8.09
2023-03-01T11:55:29.219Z,7.96
2023-03-01T11:58:28.645Z,8.04
2023-03-01T12:01:08.303Z,8.03
2023-03-01T12:04:30.380Z,8.00
2023-03-01T12:07:38.653Z,8.02
2023-03-01T12:10:31.676Z,8.13
2023-03-01T12:13:27.243Z,8.05
2023-03-01T12:17:04.688Z,8.07
2023-03-01T12:20:18.222Z,8.15
2023-03-01T12:23:19.387Z,8.17
2023-03-01T12:26:24.217Z,8.21
2023-03-01T12:29:17.910Z,8.24
2023-03-01T12:32:14.383Z,8.41
2023-03-01T12:35:55.856Z,8.44
2023-03-01T12:39:06.544Z,8.54
2023-03-01T12:42:03.313Z,8.57
2023-03-01T12:45:18.573Z,8.35
2023-03-01T12:48:34.835Z,8.13
2023-03-01T12:51:17.114Z,8.11
2023-03-01T12:53:58.760Z,8.41
2023-03-01T12:56:54.709Z,8.55
2023-03-01T12:59:51.433Z,8.68
2023-03-01T13:02:39.286Z,8.78
2023-03-01T13:05:46.060Z,8.86
2023-03-01T13:08:39.079Z,8.86
2023-03-01T13:11:27.191Z,8.80
2023-03-01T13:14:30.402Z,8.79
2023-03-01T13:17:36.989Z,8.76
2023-03-01T13:20:22.889Z,8.64
2023-03-01T13:23:24.914Z,8.57
2023-03-01T13:26:01.588Z,8.40
2023-03-01T13:28:50.183Z,8.16
2023-03-01T13:31:26.177Z,8.10
2023-03-01T13:34:01.436Z,8.13
2023-03-01T13:36:42.507Z,8.02
2023-03-01T13:39:45.992Z,8.04
2023-03-01T13:43:05.269Z,8.00
2023-03-01T13:45:50.808Z,8.02
2023-03-01T13:48:33.002Z,8.08
2023-03-01T13:51:13.171Z,8.00
2023-03-01T13:53:53.073Z,7.99
2023-03-01T13:56:39.624Z,7.93
2023-03-01T13:59:31.778Z,7.83
2023-03-01T14:02:15.195Z,7.71
2023-03-01T14:04:59.382Z,7.50
2023-03-01T14:07:38.325Z,7.32
2023-03-01T14:10:16.264Z,7.21
2023-03-01T14:14:07.605Z,7.19
2023-03-01T14:17:17.506Z,7.03
2023-03-01T14:20:02.437Z,6.95
2023-03-01T14:22:38.642Z,6.93
2023-03-01T14:25:40.834Z,6.93
2023-03-01T14:28:41.599Z,6.97
2023-03-01T14:31:53.809Z,6.93
2023-03-01T14:34:32.327Z,6.99
2023-03-01T14:37:38.578Z,6.99
2023-03-01T14:40:40.437Z,7.02
2023-03-01T14:43:28.200Z,7.15
2023-03-01T14:46:21.021Z,7.13
2023-03-01T14:49:05.107Z,7.11
2023-03-01T14:51:43.393Z,7.04
2023-03-01T14:54:42.197Z,6.99
2023-03-01T14:57:34.154Z,6.93
2023-03-01T15:00:09.812Z,6.91
2023-03-01T15:02:40.947Z,6.90
2023-03-01T15:05:28.826Z,6.89
2023-03-01T15:08:05.724Z,6.89
2023-03-01T15:10:38.289Z,6.90
2023-03-01T15:13:31.848Z,6.86
2023-03-01T15:16:16.818Z,6.78
2023-03-01T15:19:00.629Z,6.72
2023-03-01T15:21:46.564Z,6.66
2023-03-01T15:24:30.324Z,6.60
2023-03-01T15:27:10.288Z,6.53
2023-03-01T15:29:58.957Z,6.47
2023-03-01T15:32:41.272Z,6.43
2023-03-01T15:35:49.344Z,6.42
2023-03-01T15:38:53.209Z,6.45
2023-03-01T15:41:53.274Z,6.49
2023-03-01T15:44:43.264Z,6.48
2023-03-01T15:48:06.158Z,6.48
2023-03-01T15:50:42.208Z,6.53
2023-03-01T15:53:19.678Z,6.53
2023-03-01T15:55:57.460Z,6.44
2023-03-01T15:58:35.112Z,6.41
2023-03-01T16:01:21.097Z,6.30
2023-03-01T16:03:59.511Z,6.22
2023-03-01T16:06:37.164Z,6.13
2023-03-01T16:09:13.955Z,6.04
2023-03-01T16:11:45.324Z,5.98
2023-03-01T16:14:23.387Z,5.91
2023-03-01T16:17:01.610Z,5.84
2023-03-01T16:19:39.964Z,5.79
2023-03-01T16:22:18.294Z,5.71
2023-03-01T16:24:56.074Z,5.62
2023-03-01T16:27:34.508Z,5.56
2023-03-01T16:30:12.935Z,5.51
2023-03-01T16:32:49.341Z,5.45
2023-03-01T16:35:24.441Z,5.39
2023-03-01T16:38:02.149Z,5.30
2023-03-01T16:40:40.544Z,5.32
2023-03-01T16:43:19.233Z,5.33
2023-03-01T16:45:53.883Z,5.33
2023-03-01T16:48:25.358Z,5.34
2023-03-01T16:51:08.972Z,5.31
2023-03-01T16:53:47.635Z,5.30
2023-03-01T16:56:25.362Z,5.28
2023-03-01T16:59:06.376Z,5.24
2023-03-01T17:01:45.663Z,5.19
2023-03-01T17:04:23.374Z,5.12
2023-03-01T17:07:01.122Z,5.06
2023-03-01T17:09:40.991Z,5.03
2023-03-01T17:12:19.372Z,4.98
2023-03-01T17:14:57.777Z,4.93
2023-03-01T17:17:36.823Z,4.89
2023-03-01T17:20:08.997Z,4.84
2023-03-01T17:22:41.535Z,4.80
2023-03-01T17:25:19.851Z,4.77
2023-03-01T17:27:57.793Z,4.78
2023-03-01T17:30:34.983Z,4.81
2023-03-01T17:33:12.542Z,4.84
2023-03-01T17:35:48.813Z,4.83
2023-03-01T17:38:26.675Z,4.82
2023-03-01T17:41:12.290Z,4.82
2023-03-01T17:43:45.883Z,4.83
2023-03-01T17:46:25.324Z,4.81
2023-03-01T17:48:56.041Z,4.76
2023-03-01T17:51:27.598Z,4.73
2023-03-01T17:54:04.373Z,4.68
2023-03-01T17:56:43.116Z,4.63
2023-03-01T17:59:20.660Z,4.58
2023-03-01T18:01:57.946Z,4.55
2023-03-01T18:04:36.828Z,4.51
2023-03-01T18:07:15.704Z,4.51
2023-03-01T18:09:53.524Z,4.53
2023-03-01T18:12:31.679Z,4.53
2023-03-01T18:15:11.639Z,4.55
2023-03-01T18:17:49.353Z,4.50
2023-03-01T18:20:27.739Z,4.54
2023-03-01T18:22:58.750Z,4.51
2023-03-01T18:25:37.096Z,4.45
2023-03-01T18:28:07.773Z,4.40
2023-03-01T18:30:43.774Z,4.35
2023-03-01T18:33:21.707Z,4.31
2023-03-01T18:35:59.458Z,4.26
2023-03-01T18:38:37.552Z,4.20
2023-03-01T18:41:15.413Z,4.15
2023-03-01T18:43:53.929Z,4.17
2023-03-01T18:46:36.094Z,4.18
2023-03-01T18:49:16.860Z,4.20
2023-03-01T18:51:55.831Z,4.21
2023-03-01T18:54:26.774Z,4.22
2023-03-01T18:57:04.904Z,4.22
2023-03-01T18:59:42.489Z,4.16
2023-03-01T19:02:17.420Z,4.12
2023-03-01T19:04:55.863Z,4.08
2023-03-01T19:07:26.451Z,4.03
2023-03-01T19:10:04.445Z,3.97
2023-03-01T19:12:41.529Z,3.90
2023-03-01T19:15:21.133Z,3.89
2023-03-01T19:17:59.337Z,3.90
2023-03-01T19:20:38.911Z,3.94
2023-03-01T19:23:17.549Z,3.98
2023-03-01T19:25:47.896Z,3.96
2023-03-01T19:28:25.862Z,3.90
2023-03-01T19:31:11.767Z,3.87
2023-03-01T19:33:51.364Z,3.86
2023-03-01T19:36:44.854Z,3.81
2023-03-01T19:39:22.352Z,3.75
2023-03-01T19:41:59.688Z,3.69
2023-03-01T19:44:31.166Z,3.69
2023-03-01T19:47:09.398Z,3.68
2023-03-01T19:49:46.202Z,3.70
2023-03-01T19:52:23.718Z,3.74
2023-03-01T19:55:12.229Z,3.73
2023-03-01T19:57:52.077Z,3.65
2023-03-01T20:00:29.974Z,3.60
2023-03-01T20:03:08.018Z,3.57
2023-03-01T20:05:45.378Z,3.52
2023-03-01T20:08:22.089Z,3.47
2023-03-01T20:11:05.605Z,3.45
2023-03-01T20:13:42.660Z,3.46
2023-03-01T20:16:23.346Z,3.47
2023-03-01T20:18:58.648Z,3.47
2023-03-01T20:21:30.073Z,3.48
2023-03-01T20:24:07.063Z,3.52
2023-03-01T20:26:45.330Z,3.54
2023-03-01T20:29:22.577Z,3.52
2023-03-01T20:31:53.936Z,3.45
2023-03-01T20:34:30.351Z,3.42
2023-03-01T20:37:09.675Z,3.39
2023-03-01T20:39:46.792Z,3.31
2023-03-01T20:42:23.818Z,3.24
2023-03-01T20:44:55.608Z,3.26
2023-03-01T20:47:28.849Z,3.26
2023-03-01T20:50:08.503Z,3.26
2023-03-01T20:52:47.058Z,3.25
2023-03-01T20:55:25.222Z,3.25
2023-03-01T20:57:56.786Z,3.20
2023-03-01T21:00:30.431Z,3.19
2023-03-01T21:03:01.521Z,3.15
2023-03-01T21:05:33.186Z,3.10
2023-03-01T21:08:09.036Z,3.08
2023-03-01T21:10:50.070Z,3.03
2023-03-01T21:13:28.601Z,3.03
2023-03-01T21:16:08.218Z,3.02
2023-03-01T21:18:44.935Z,3.03
2023-03-01T21:21:24.296Z,3.02
2023-03-01T21:23:56.242Z,3.04
2023-03-01T21:26:34.303Z,3.01
2023-03-01T21:29:05.334Z,2.99
2023-03-01T21:31:36.361Z,2.94
2023-03-01T21:34:08.155Z,2.90
2023-03-01T21:36:38.302Z,2.91
2023-03-01T21:39:17.017Z,2.93
2023-03-01T21:41:53.954Z,2.95
2023-03-01T21:44:33.170Z,2.94
2023-03-01T21:47:03.764Z,2.92
2023-03-01T21:49:34.424Z,2.91
2023-03-01T21:52:17.782Z,2.87
2023-03-01T21:54:52.840Z,2.83
2023-03-01T21:57:30.520Z,2.77
2023-03-01T22:00:09.250Z,2.74
2023-03-01T22:02:46.165Z,2.78
2023-03-01T22:05:24.108Z,2.82
2023-03-01T22:07:54.403Z,2.86
2023-03-01T22:10:32.558Z,2.82
2023-03-01T22:13:02.863Z,2.83
2023-03-01T22:15:33.242Z,2.84
2023-03-01T22:18:11.512Z,2.82
2023-03-01T22:20:49.036Z,2.72
2023-03-01T22:23:26.096Z,2.64
2023-03-01T22:25:56.501Z,2.63
2023-03-01T22:28:34.087Z,2.62
2023-03-01T22:31:14.695Z,2.66
2023-03-01T22:33:52.351Z,2.70
2023-03-01T22:36:29.933Z,2.70
2023-03-01T22:39:08.884Z,2.71
2023-03-01T22:41:45.497Z,2.61
2023-03-01T22:44:19.896Z,2.54
2023-03-01T22:46:53.715Z,2.51
2023-03-01T22:49:31.577Z,2.49
2023-03-01T22:52:10.164Z,2.45
2023-03-01T22:54:46.901Z,2.42
2023-03-01T22:57:25.591Z,2.43
2023-03-01T22:59:55.880Z,2.43
2023-03-01T23:02:27.832Z,2.33
2023-03-01T23:04:59.993Z,2.22
2023-03-01T23:07:33.008Z,2.11
2023-03-01T23:10:12.577Z,2.07
2023-03-01T23:12:50.923Z,2.08
2023-03-01T23:15:28.361Z,2.09
2023-03-01T23:17:58.493Z,2.13
2023-03-01T23:20:38.827Z,2.16
2023-03-01T23:23:16.850Z,2.22
2023-03-01T23:25:58.323Z,2.18
2023-03-01T23:28:33.829Z,2.15
2023-03-01T23:31:14.940Z,2.10
2023-03-01T23:33:53.830Z,2.02
2023-03-01T23:36:35.884Z,1.97
2023-03-01T23:39:14.752Z,1.94
2023-03-01T23:41:52.393Z,2.01
2023-03-01T23:44:26.856Z,2.05
2023-03-01T23:46:57.819Z,2.04
2023-03-01T23:49:29.645Z,1.95
2023-03-01T23:52:08.217Z,1.91
2023-03-01T23:54:45.932Z,1.91
2023-03-01T23:57:23.332Z,1.91
2023-03-01T23:59:57.576Z,1.84
